ADDS METAR Data INFO
IDs: Format: Raw Decoded Include TAF

Data at: 0926 UTC 17 Oct 2017

KTRK 170915Z AUTO 00000KT 10SM CLR M01/M07 A3035 RMK AO2
KTRK 170855Z AUTO 00000KT 10SM CLR M01/M06 A3036 RMK AO2
KTRK 170835Z AUTO 00000KT 10SM CLR 00/M07 A3037 RMK AO2
KTRK 170815Z AUTO 00000KT 10SM CLR 00/M06 A3037 RMK AO2
KTRK 170755Z AUTO 00000KT 10SM CLR 00/M06 A3036 RMK AO2
KTRK 170735Z AUTO 00000KT 10SM CLR 01/M06 A3037 RMK AO2
KTRK 170715Z AUTO 00000KT 10SM CLR 00/M06 A3037 RMK AO2
KTRK 170655Z AUTO 00000KT 10SM CLR 00/M06 A3037 RMK AO2
KTRK 170635Z AUTO 00000KT 10SM CLR 02/M06 A3037 RMK AO2
KTRK 170615Z AUTO 00000KT 10SM CLR 02/M06 A3036 RMK AO2
KTRK 170555Z AUTO 00000KT 10SM CLR 02/M06 A3036 RMK AO2
KTRK 170535Z AUTO 00000KT 10SM CLR 03/M06 A3037 RMK AO2
KTRK 170515Z AUTO 00000KT 10SM CLR 03/M06 A3037 RMK AO2
KTRK 170455Z AUTO 00000KT 10SM CLR 03/M06 A3036 RMK AO2
KTRK 170435Z AUTO 00000KT 10SM CLR 03/M07 A3036 RMK AO2
KTRK 170415Z AUTO 00000KT 10SM CLR 06/M06 A3035 RMK AO2
KTRK 170355Z AUTO 00000KT 10SM CLR 05/M06 A3035 RMK AO2
KTRK 170335Z AUTO 00000KT 10SM CLR 06/M07 A3035 RMK AO2
KTRK 170315Z AUTO 00000KT 10SM CLR 08/M07 A3035 RMK AO2
KTRK 170255Z AUTO 00000KT 10SM CLR 08/M04 A3034 RMK AO2
KTRK 170235Z AUTO 00000KT 10SM CLR 11/M05 A3034 RMK AO2
KTRK 170215Z AUTO 00000KT 10SM CLR 10/M05 A3034 RMK AO2
KTRK 170155Z AUTO 00000KT 10SM CLR 12/M04 A3033 RMK AO2
KTRK 170135Z AUTO 17004KT 10SM CLR 15/M06 A3033 RMK AO2
KTRK 170115Z AUTO 00000KT 5SM HZ CLR 17/M07 A3032 RMK AO2
KTRK 162350Z 15005KT 10SM BKN190 21/M12 A3032
KTRK 162250Z 00000KT 10SM BKN190 23/M09 A3032
KTRK 162150Z 00000KT 10SM BKN230 23/M09 A3034 RMK FU HZ ALQDS
KTRK 162045Z 31004KT 10SM BKN230 22/M08 A3036 RMK FU HZ ALQDS
KTRK 161855Z 00000KT 10SM BKN230 16/M05 A3041 RMK FU HZ ALQDS
KTRK 161755Z 00000KT 10SM SCT220 09/M07 A3044
KTRK 161655Z 00000KT 10SM FEW220 06/M07 A3045
KTRK 161645Z 00000KT 10SM FEW220 04/M08 A3045
KTRK 161545Z 00000KT 10SM FEW220 M01/M08 A3045
KTRK 161445Z 00000KT 10SM SKC M06/M09 A3044
KTRK 161355Z 00000KT 10SM SKC M07/M10 A3044
KTRK 161335Z AUTO 00000KT 10SM CLR M05/M08 A3043 RMK AO2
KTRK 161315Z AUTO 00000KT 10SM CLR M06/M09 A3042 RMK AO2
KTRK 161255Z AUTO 00000KT 10SM CLR M04/M08 A3042 RMK AO2
KTRK 161235Z AUTO 00000KT 10SM CLR M05/M08 A3042 RMK AO2
KTRK 161215Z AUTO 00000KT 10SM CLR M05/M09 A3042 RMK AO2
KTRK 161155Z AUTO 00000KT 10SM CLR M03/M08 A3042 RMK AO2
KTRK 161135Z AUTO 00000KT 10SM CLR M04/M08 A3042 RMK AO2
KTRK 161115Z AUTO 00000KT 10SM CLR M05/M09 A3042 RMK AO2
KTRK 161055Z AUTO 00000KT 10SM CLR M05/M10 A3042 RMK AO2
KTRK 161035Z AUTO 00000KT 10SM CLR M03/M08 A3042 RMK AO2
KTRK 161015Z AUTO 00000KT 10SM CLR M03/M08 A3042 RMK AO2
KTRK 160955Z AUTO 00000KT 10SM CLR M03/M08 A3043 RMK AO2
KTRK 160935Z AUTO 00000KT 10SM CLR M03/M08 A3044 RMK AO2
KTRK 160915Z AUTO 00000KT 10SM CLR M02/M09 A3044 RMK AO2
KTRK 160855Z AUTO 00000KT 10SM CLR M02/M09 A3044 RMK AO2
KTRK 160835Z AUTO 00000KT 10SM CLR M03/M08 A3043 RMK AO2
KTRK 160815Z AUTO 00000KT 10SM CLR M03/M08 A3043 RMK AO2
KTRK 160755Z AUTO 00000KT 10SM CLR M02/M10 A3044 RMK AO2
KTRK 160735Z AUTO 00000KT 10SM CLR M02/M08 A3042 RMK AO2
KTRK 160715Z AUTO 00000KT 10SM CLR 00/M08 A3042 RMK AO2
KTRK 160655Z AUTO 00000KT 10SM CLR M01/M07 A3043 RMK AO2
KTRK 160635Z AUTO 00000KT 10SM CLR 00/M07 A3042 RMK AO2
KTRK 160620Z AUTO 00000KT 10SM CLR 00/M07 A3043 RMK AO2
KTRK 160555Z AUTO 00000KT 10SM CLR 01/M07 A3043 RMK AO2
KTRK 160535Z AUTO 00000KT 10SM CLR 01/M07 A3043 RMK AO2
KTRK 160515Z AUTO 00000KT 10SM CLR 02/M07 A3043 RMK AO2
KTRK 160455Z AUTO 00000KT 10SM CLR 02/M07 A3042 RMK AO2
KTRK 160435Z AUTO 00000KT 10SM CLR 03/M06 A3042 RMK AO2
KTRK 160415Z AUTO 00000KT 10SM CLR 03/M07 A3041 RMK AO2
KTRK 160355Z AUTO 00000KT 10SM CLR 05/M07 A3040 RMK AO2
KTRK 160335Z AUTO 00000KT 10SM CLR 08/M08 A3040 RMK AO2
KTRK 160315Z AUTO 00000KT 10SM CLR 06/M07 A3039 RMK AO2
KTRK 160255Z AUTO 00000KT 10SM CLR 06/M06 A3038 RMK AO2
KTRK 160235Z AUTO 00000KT 10SM CLR 07/M07 A3038 RMK AO2
KTRK 160215Z AUTO 00000KT 10SM CLR 08/M06 A3037 RMK AO2
KTRK 160155Z AUTO 13003KT 10SM CLR 08/M07 A3037 RMK AO2
KTRK 160135Z AUTO 00000KT 10SM CLR 12/M08 A3036 RMK AO2
KTRK 160115Z AUTO 15004KT 10SM CLR 15/M10 A3036 RMK AO2
KTRK 160045Z 27008KT 10SM BKN210 19/M12 A3035
KTRK 152345Z 27008KT 10SM BKN190 22/M12 A3035
KTRK 152245Z 30010KT 10SM SCT190 23/M13 A3034
KTRK 152145Z 00000KT 10SM SCT190 22/M08 A3034